createdAt,value
2019-03-29T00:03:57.299Z,7.92
2019-03-29T00:09:06.281Z,8.32
2019-03-29T00:14:16.122Z,8.04
2019-03-29T00:19:25.008Z,7.86
2019-03-29T00:24:33.759Z,8.43
2019-03-29T00:29:43.751Z,8.25
2019-03-29T00:34:52.654Z,8.25
2019-03-29T00:40:01.832Z,8.28
2019-03-29T00:45:11.065Z,8.43
2019-03-29T00:50:20.162Z,8.15
2019-03-29T00:55:29.492Z,8.30
2019-03-29T01:00:38.685Z,8.19
2019-03-29T01:05:47.418Z,8.05
2019-03-29T01:10:55.948Z,8.06
2019-03-29T01:16:05.213Z,8.20
2019-03-29T01:21:14.271Z,8.04
2019-03-29T01:26:22.973Z,8.28
2019-03-29T01:31:32.055Z,8.35
2019-03-29T01:36:40.768Z,9.16
2019-03-29T01:41:49.429Z,8.61
2019-03-29T01:46:58.796Z,8.80
2019-03-29T01:52:07.402Z,9.06
2019-03-29T01:57:16.350Z,8.79
2019-03-29T02:02:24.928Z,8.50
2019-03-29T02:07:33.992Z,8.72
2019-03-29T02:12:42.816Z,8.45
2019-03-29T02:17:51.443Z,8.78
2019-03-29T02:23:00.245Z,9.12
2019-03-29T02:28:08.993Z,8.17
2019-03-29T02:33:17.601Z,8.64
2019-03-29T02:38:27.802Z,9.16
2019-03-29T02:43:26.268Z,8.69
2019-03-29T02:48:35.540Z,9.04
2019-03-29T02:53:42.862Z,8.75
2019-03-29T02:58:56.642Z,9.30
2019-03-29T03:03:55.562Z,8.79
2019-03-29T03:09:13.889Z,8.85
2019-03-29T03:19:08.546Z,9.84
2019-03-29T03:24:17.306Z,9.55
2019-03-29T03:29:26.309Z,9.81
2019-03-29T03:34:33.634Z,10.29
2019-03-29T03:39:42.302Z,10.29
2019-03-29T03:44:50.974Z,10.29
2019-03-29T03:50:01.238Z,10.67
2019-03-29T03:55:08.071Z,10.80
2019-03-29T04:00:16.801Z,10.84
2019-03-29T04:05:25.434Z,11.51
2019-03-29T04:10:34.305Z,11.40
2019-03-29T04:15:45.777Z,11.55
2019-03-29T04:20:44.489Z,11.12
2019-03-29T04:25:53.448Z,11.35
2019-03-29T04:31:02.575Z,11.74
2019-03-29T04:36:11.204Z,11.63
2019-03-29T04:41:19.889Z,11.57
2019-03-29T04:46:28.609Z,11.75
2019-03-29T04:51:37.340Z,11.52
2019-03-29T04:56:46.159Z,11.58
2019-03-29T05:01:55.135Z,11.43
2019-03-29T05:07:03.831Z,11.84
2019-03-29T05:12:14.660Z,11.22
2019-03-29T05:17:13.126Z,11.33
2019-03-29T05:22:21.842Z,11.35
2019-03-29T05:27:30.865Z,11.82
2019-03-29T05:37:45.255Z,12.03
2019-03-29T05:42:56.388Z,11.67
2019-03-29T05:47:44.975Z,11.76
2019-03-29T05:52:57.103Z,11.52
2019-03-29T05:57:55.983Z,12.19
2019-03-29T06:03:05.242Z,11.80
2019-03-29T06:08:15.770Z,11.65
2019-03-29T06:13:14.908Z,11.50
2019-03-29T06:18:24.072Z,11.38
2019-03-29T06:23:32.999Z,11.89
2019-03-29T06:29:39.988Z,12.20
2019-03-29T06:34:41.664Z,11.20
2019-03-29T06:39:40.663Z,11.42
2019-03-29T06:44:49.613Z,10.31
2019-03-29T06:49:58.822Z,10.60
2019-03-29T06:55:08.132Z,11.10
2019-03-29T07:00:17.384Z,9.77
2019-03-29T07:05:27.094Z,9.81
2019-03-29T07:10:35.702Z,9.63
2019-03-29T07:15:44.792Z,9.65
2019-03-29T07:20:53.458Z,9.70
2019-03-29T07:26:07.509Z,10.16
2019-03-29T07:31:05.986Z,9.88
2019-03-29T07:36:15.004Z,9.94
2019-03-29T07:41:31.784Z,9.24
2019-03-29T07:46:33.078Z,10.13
2019-03-29T07:51:42.089Z,9.40
2019-03-29T07:56:51.509Z,9.94
2019-03-29T08:02:02.321Z,9.96
2019-03-29T08:07:11.197Z,10.34
2019-03-29T08:12:09.650Z,10.23
2019-03-29T08:17:19.933Z,9.62
2019-03-29T08:22:18.975Z,10.70
2019-03-29T08:27:28.475Z,10.55
2019-03-29T08:32:37.451Z,10.90
2019-03-29T08:37:47.083Z,10.56
2019-03-29T08:42:56.359Z,11.52
2019-03-29T08:48:06.959Z,10.70
2019-03-29T08:53:14.730Z,10.35
2019-03-29T08:58:25.951Z,10.56
2019-03-29T09:03:25.006Z,10.51
2019-03-29T09:08:34.465Z,10.29
2019-03-29T09:13:43.743Z,8.94
2019-03-29T09:18:53.096Z,8.33
2019-03-29T09:24:02.475Z,9.25
2019-03-29T09:29:11.852Z,8.84
2019-03-29T09:34:20.948Z,8.78
2019-03-29T09:39:30.631Z,6.12
2019-03-29T09:44:39.349Z,7.10
2019-03-29T09:49:48.574Z,6.95
2019-03-29T09:54:57.778Z,7.06
2019-03-29T10:05:31.430Z,4.95
2019-03-29T10:10:41.187Z,5.68
2019-03-29T10:15:40.204Z,5.32
2019-03-29T10:20:50.324Z,5.57
2019-03-29T10:25:48.842Z,5.36
2019-03-29T10:30:58.291Z,5.89
2019-03-29T10:36:07.467Z,5.39
2019-03-29T11:12:07.620Z,3.24
2019-03-29T11:17:17.108Z,3.07
2019-03-29T11:22:27.360Z,2.88
2019-03-29T11:27:26.372Z,2.68
2019-03-29T11:32:36.233Z,2.78
2019-03-29T11:37:45.483Z,2.72
2019-03-29T11:43:01.377Z,2.92
2019-03-29T11:48:08.100Z,2.96
2019-03-29T11:53:08.708Z,2.68
2019-03-29T11:58:17.980Z,2.85
2019-03-29T12:03:31.600Z,3.36
2019-03-29T12:08:30.762Z,3.38
2019-03-29T12:13:41.412Z,3.00
2019-03-29T12:18:49.458Z,2.82
2019-03-29T12:23:58.823Z,3.08
2019-03-29T12:29:08.052Z,3.36
2019-03-29T12:34:20.626Z,2.94
2019-03-29T12:39:19.160Z,3.33
2019-03-29T12:44:29.152Z,3.59
2019-03-29T12:49:28.442Z,3.15
2019-03-29T12:54:38.072Z,3.24
2019-03-29T12:59:46.906Z,3.66
2019-03-29T13:04:59.737Z,3.84
2019-03-29T13:09:58.724Z,4.04
2019-03-29T13:15:08.470Z,4.02
2019-03-29T13:20:17.848Z,3.79
2019-03-29T13:25:27.149Z,3.71
2019-03-29T13:30:36.526Z,4.76
2019-03-29T13:35:46.776Z,4.28
2019-03-29T13:40:45.702Z,4.61
2019-03-29T13:45:59.216Z,4.11
2019-03-29T13:50:59.637Z,4.55
2019-03-29T13:56:07.040Z,3.66
2019-03-29T14:01:16.344Z,4.09
2019-03-29T14:06:25.964Z,3.45
2019-03-29T14:11:37.021Z,3.23
2019-03-29T14:16:36.382Z,3.49
2019-03-29T14:21:45.623Z,3.28
2019-03-29T14:26:55.557Z,3.40
2019-03-29T14:32:05.344Z,2.87
2019-03-29T14:37:14.540Z,3.01
2019-03-29T14:42:25.014Z,2.89
2019-03-29T14:47:24.033Z,2.84
2019-03-29T14:52:33.489Z,2.30
2019-03-29T14:57:44.909Z,2.27
2019-03-29T15:02:44.090Z,2.32
2019-03-29T15:07:53.226Z,2.21
2019-03-29T15:13:02.937Z,2.41
2019-03-29T15:18:12.267Z,2.41
2019-03-29T15:23:22.209Z,2.93
2019-03-29T15:28:31.397Z,2.81
2019-03-29T15:33:40.674Z,2.46
2019-03-29T15:38:50.043Z,2.33
2019-03-29T15:43:59.472Z,2.48
2019-03-29T15:49:09.212Z,2.17
2019-03-29T15:54:18.911Z,2.66
2019-03-29T15:59:28.280Z,2.44
2019-03-29T16:04:38.574Z,2.83
2019-03-29T16:09:37.798Z,2.44
2019-03-29T16:14:47.177Z,2.16
2019-03-29T16:19:56.712Z,2.23
2019-03-29T16:25:06.161Z,1.89
2019-03-29T16:30:15.395Z,1.96
2019-03-29T16:35:24.685Z,1.91
2019-03-29T16:40:33.999Z,2.29
2019-03-29T16:45:48.316Z,3.66
2019-03-29T16:50:54.351Z,2.77
2019-03-29T16:55:53.523Z,2.45
2019-03-29T17:01:02.798Z,2.13
2019-03-29T17:06:12.388Z,3.80
2019-03-29T17:11:35.058Z,1.90
2019-03-29T17:16:30.637Z,1.86
2019-03-29T17:21:26.597Z,2.29
2019-03-29T17:26:36.287Z,2.33
2019-03-29T17:31:45.737Z,1.79
2019-03-29T17:36:55.388Z,2.37
2019-03-29T17:42:04.898Z,2.04
2019-03-29T17:47:14.243Z,2.20
2019-03-29T17:52:22.915Z,2.25
2019-03-29T17:57:34.032Z,2.41
2019-03-29T18:02:33.030Z,3.58
2019-03-29T18:07:43.220Z,2.94
2019-03-29T18:12:42.196Z,3.03
2019-03-29T18:17:51.822Z,3.25
2019-03-29T18:23:01.027Z,3.14
2019-03-29T18:28:10.456Z,2.98
2019-03-29T18:33:19.237Z,3.42
2019-03-29T18:38:29.207Z,3.16
2019-03-29T18:43:38.438Z,4.10
2019-03-29T18:48:49.882Z,4.52
2019-03-29T18:53:48.880Z,4.60
2019-03-29T18:59:00.818Z,3.46
2019-03-29T19:03:59.096Z,4.30
2019-03-29T19:09:08.333Z,4.46
2019-03-29T19:14:17.565Z,4.81
2019-03-29T19:19:28.782Z,6.06
2019-03-29T19:24:28.190Z,8.82
2019-03-29T19:29:37.852Z,7.32
2019-03-29T19:34:47.249Z,7.57
2019-03-29T19:40:03.065Z,6.57
2019-03-29T19:45:01.969Z,6.97
2019-03-29T19:50:11.433Z,8.51
2019-03-29T19:55:20.835Z,7.15
2019-03-29T20:00:30.446Z,6.19
2019-03-29T20:05:40.358Z,5.89
2019-03-29T20:10:50.539Z,5.77
2019-03-29T20:15:59.653Z,5.92
2019-03-29T20:21:08.925Z,5.91
2019-03-29T20:26:18.011Z,5.99
2019-03-29T20:31:27.821Z,6.60
2019-03-29T20:36:37.310Z,6.50
2019-03-29T20:41:46.600Z,6.49
2019-03-29T20:46:55.358Z,6.94
2019-03-29T20:52:06.601Z,7.23
2019-03-29T20:57:05.620Z,6.41
2019-03-29T21:02:18.840Z,6.62
2019-03-29T21:07:17.463Z,6.64
2019-03-29T21:12:26.569Z,6.57
2019-03-29T21:17:36.218Z,6.44
2019-03-29T21:22:45.548Z,6.53
2019-03-29T21:27:54.765Z,6.66
2019-03-29T21:33:10.833Z,7.04
2019-03-29T21:38:10.045Z,6.38
2019-03-29T21:43:19.458Z,6.09
2019-03-29T21:48:29.272Z,6.08
2019-03-29T21:53:38.535Z,6.33
2019-03-29T21:58:37.045Z,6.40
2019-03-29T22:03:47.515Z,6.61
2019-03-29T22:08:45.796Z,6.53
2019-03-29T22:13:54.828Z,6.94
2019-03-29T22:19:07.137Z,6.55
2019-03-29T22:24:10.548Z,7.05
2019-03-29T22:29:09.687Z,6.75
2019-03-29T22:34:22.519Z,6.83
2019-03-29T22:39:21.752Z,6.79
2019-03-29T22:44:31.775Z,6.80
2019-03-29T22:49:30.530Z,6.59
2019-03-29T22:54:39.830Z,6.57
2019-03-29T22:59:48.897Z,6.62
2019-03-29T23:05:00.339Z,6.61
2019-03-29T23:09:59.311Z,6.43
2019-03-29T23:15:08.742Z,6.62
2019-03-29T23:20:18.440Z,6.65
2019-03-29T23:25:27.986Z,6.96
2019-03-29T23:30:36.732Z,6.58
2019-03-29T23:35:45.660Z,6.77
2019-03-29T23:40:54.891Z,6.60
2019-03-29T23:46:04.192Z,6.38
2019-03-29T23:51:13.580Z,6.29
2019-03-29T23:56:24.598Z,6.79
